createdAt,value
2023-02-03T00:04:25.509Z,5.50
2023-02-03T00:09:33.244Z,6.30
2023-02-03T00:14:39.608Z,5.90
2023-02-03T00:19:45.767Z,5.00
2023-02-03T00:24:54.271Z,5.20
2023-02-03T00:30:00.436Z,5.90
2023-02-03T00:35:11.811Z,5.30
2023-02-03T00:40:18.771Z,4.80
2023-02-03T00:45:28.166Z,5.30
2023-02-03T00:50:35.651Z,5.40
2023-02-03T00:55:42.833Z,5.50
2023-02-03T01:00:50.047Z,4.30
2023-02-03T01:06:07.916Z,4.50
2023-02-03T01:11:17.557Z,4.30
2023-02-03T01:16:28.599Z,4.40
2023-02-03T01:21:36.432Z,3.80
2023-02-03T01:26:43.005Z,4.00
2023-02-03T01:31:49.717Z,4.20
2023-02-03T01:36:56.487Z,3.80
2023-02-03T01:42:03.324Z,3.10
2023-02-03T01:47:23.508Z,3.70
2023-02-03T01:52:31.867Z,3.80
2023-02-03T01:57:42.863Z,3.30
2023-02-03T02:02:50.967Z,3.60
2023-02-03T02:08:00.771Z,3.70
2023-02-03T02:13:08.862Z,3.60
2023-02-03T02:18:31.535Z,3.70
2023-02-03T02:24:09.099Z,3.70
2023-02-03T02:29:47.794Z,3.00
2023-02-03T02:35:04.857Z,3.10
2023-02-03T02:40:22.043Z,4.10
2023-02-03T02:45:32.435Z,3.50
2023-02-03T02:50:44.059Z,2.90
2023-02-03T02:55:52.125Z,3.20
2023-02-03T03:01:01.987Z,3.30
2023-02-03T03:06:13.102Z,3.00
2023-02-03T03:11:21.847Z,3.00
2023-02-03T03:16:33.944Z,2.90
2023-02-03T03:21:44.814Z,3.10
2023-02-03T03:26:56.246Z,3.10
2023-02-03T03:32:03.412Z,3.40
2023-02-03T03:37:19.069Z,2.80
2023-02-03T03:42:31.746Z,3.30
2023-02-03T03:47:42.982Z,3.00
2023-02-03T03:52:52.336Z,3.30
2023-02-03T03:58:02.652Z,3.20
2023-02-03T04:03:14.624Z,2.70
2023-02-03T04:08:21.791Z,4.00
2023-02-03T04:13:28.802Z,4.00
2023-02-03T04:18:34.942Z,4.60
2023-02-03T04:23:41.364Z,4.90
2023-02-03T04:28:47.806Z,4.00
2023-02-03T04:33:54.382Z,3.60
2023-02-03T04:39:00.548Z,4.50
2023-02-03T04:44:06.774Z,4.80
2023-02-03T04:49:13.540Z,6.00
2023-02-03T04:54:20.683Z,5.40
2023-02-03T04:59:28.056Z,4.50
2023-02-03T05:04:35.484Z,4.30
2023-02-03T05:09:41.972Z,12.70
2023-02-03T05:14:48.921Z,14.40
2023-02-03T05:19:55.009Z,7.40
2023-02-03T05:25:01.664Z,6.80
2023-02-03T05:30:10.162Z,6.20
2023-02-03T05:35:18.007Z,6.50
2023-02-03T05:40:43.655Z,8.40
2023-02-03T05:45:51.027Z,9.10
2023-02-03T05:50:58.911Z,12.50
2023-02-03T05:56:05.769Z,11.20
2023-02-03T06:01:13.052Z,8.90
2023-02-03T06:06:20.535Z,8.40
2023-02-03T06:11:26.962Z,9.40
2023-02-03T06:16:34.446Z,9.60
2023-02-03T06:21:40.333Z,10.30
2023-02-03T06:26:45.939Z,9.60
2023-02-03T06:31:51.973Z,11.90
2023-02-03T06:36:57.834Z,12.80
2023-02-03T06:42:03.499Z,10.70
2023-02-03T06:47:09.201Z,11.40
2023-02-03T06:52:15.649Z,10.90
2023-02-03T06:57:21.545Z,9.80
2023-02-03T07:02:27.269Z,11.40
2023-02-03T07:07:34.063Z,15.30
2023-02-03T07:12:39.746Z,17.30
2023-02-03T07:17:51.467Z,18.00
2023-02-03T07:22:58.584Z,17.70
2023-02-03T07:28:04.515Z,16.60
2023-02-03T07:33:10.146Z,14.80
2023-02-03T07:38:15.860Z,12.80
2023-02-03T07:43:21.698Z,11.30
2023-02-03T07:48:27.561Z,14.40
2023-02-03T07:53:33.826Z,8.20
2023-02-03T07:58:39.701Z,9.20
2023-02-03T08:03:45.380Z,9.00
2023-02-03T08:08:50.924Z,9.40
2023-02-03T08:13:56.641Z,7.20
2023-02-03T08:19:02.567Z,7.40
2023-02-03T08:24:10.674Z,10.80
2023-02-03T08:29:16.321Z,6.80
2023-02-03T08:34:22.006Z,6.00
2023-02-03T08:39:28.282Z,5.00
2023-02-03T08:44:34.975Z,6.70
2023-02-03T08:49:41.221Z,5.30
2023-02-03T08:54:47.091Z,4.50
2023-02-03T08:59:52.693Z,4.90
2023-02-03T09:04:58.550Z,5.40
2023-02-03T09:10:05.067Z,6.90
2023-02-03T09:15:11.853Z,6.90
2023-02-03T09:20:19.359Z,5.30
2023-02-03T09:25:25.053Z,4.80
2023-02-03T09:30:31.465Z,6.30
2023-02-03T09:35:37.689Z,7.10
2023-02-03T09:40:43.495Z,7.10
2023-02-03T09:45:50.413Z,6.60
2023-02-03T09:50:56.283Z,5.40
2023-02-03T09:56:02.423Z,4.60
2023-02-03T10:01:13.972Z,42.00
2023-02-03T10:06:31.178Z,3.40
2023-02-03T10:11:53.211Z,2.90
2023-02-03T10:17:14.406Z,2.50
2023-02-03T10:22:26.051Z,2.70
2023-02-03T10:27:35.274Z,3.10
2023-02-03T10:32:40.970Z,3.20
2023-02-03T10:37:50.751Z,3.30
2023-02-03T10:43:15.686Z,5.30
2023-02-03T10:48:22.308Z,3.20
2023-02-03T10:53:34.768Z,4.20
2023-02-03T10:58:49.355Z,3.80
2023-02-03T11:04:01.368Z,3.30
2023-02-03T11:09:29.168Z,2.70
2023-02-03T11:14:40.826Z,3.40
2023-02-03T11:19:48.554Z,4.00
2023-02-03T11:24:54.664Z,4.00
2023-02-03T11:30:16.455Z,10.50
2023-02-03T11:35:24.517Z,4.50
2023-02-03T11:40:32.616Z,21.40
2023-02-03T11:45:42.065Z,24.60
2023-02-03T11:50:51.560Z,30.10
2023-02-03T11:56:09.717Z,21.20
2023-02-03T12:01:27.253Z,32.60
2023-02-03T12:06:59.818Z,20.00
2023-02-03T12:12:41.441Z,24.10
2023-02-03T12:17:57.058Z,9.80
2023-02-03T12:23:14.258Z,9.20
2023-02-03T12:28:34.414Z,11.40
2023-02-03T12:33:46.478Z,12.40
2023-02-03T12:38:56.039Z,4.40
2023-02-03T12:44:12.265Z,7.70
2023-02-03T12:49:31.481Z,7.80
2023-02-03T12:54:45.597Z,6.40
2023-02-03T13:00:10.609Z,6.90
2023-02-03T13:05:23.926Z,4.10
2023-02-03T13:10:33.977Z,5.30
2023-02-03T13:15:44.537Z,9.20
2023-02-03T13:20:50.406Z,12.00
2023-02-03T13:26:20.832Z,5.60
2023-02-03T13:31:41.203Z,9.80
2023-02-03T13:37:11.371Z,9.30
2023-02-03T13:42:25.510Z,12.80
2023-02-03T13:47:33.673Z,43.70
2023-02-03T13:52:56.871Z,13.20
2023-02-03T13:58:04.312Z,11.80
2023-02-03T14:03:37.594Z,25.10
2023-02-03T14:08:52.507Z,11.10
2023-02-03T14:14:21.149Z,13.10
2023-02-03T14:19:56.434Z,18.90
2023-02-03T14:25:07.950Z,12.50
2023-02-03T14:30:19.368Z,20.50
2023-02-03T14:35:31.540Z,15.60
2023-02-03T14:40:48.432Z,13.40
2023-02-03T14:46:10.342Z,17.60
2023-02-03T14:51:27.648Z,22.10
2023-02-03T14:57:24.537Z,14.90
2023-02-03T15:02:31.992Z,12.20
2023-02-03T15:07:44.741Z,14.10
2023-02-03T15:12:52.042Z,20.10
2023-02-03T15:18:00.171Z,12.50
2023-02-03T15:23:22.127Z,10.90
2023-02-03T15:28:29.327Z,8.80
2023-02-03T15:33:38.553Z,10.50
2023-02-03T15:38:48.821Z,11.10
2023-02-03T15:43:59.133Z,9.10
2023-02-03T15:49:09.387Z,10.00
2023-02-03T15:54:24.374Z,9.00
2023-02-03T15:59:35.197Z,8.80
2023-02-03T16:04:41.067Z,9.20
2023-02-03T16:09:47.166Z,11.70
2023-02-03T16:14:54.836Z,13.90
2023-02-03T16:20:24.111Z,10.70
2023-02-03T16:25:32.467Z,11.60
2023-02-03T16:30:57.766Z,11.90
2023-02-03T16:36:32.038Z,12.40
2023-02-03T16:41:56.971Z,13.50
2023-02-03T16:47:21.734Z,12.50
2023-02-03T16:52:27.588Z,13.80
2023-02-03T16:57:33.288Z,13.80
2023-02-03T17:02:38.829Z,17.50
2023-02-03T17:07:50.378Z,14.70
2023-02-03T17:12:56.025Z,16.10
2023-02-03T17:18:01.636Z,23.60
2023-02-03T17:23:07.344Z,17.30
2023-02-03T17:28:14.025Z,18.90
2023-02-03T17:33:19.887Z,14.80
2023-02-03T17:38:25.625Z,19.60
2023-02-03T17:54:42.374Z,23.50
2023-02-03T17:59:48.519Z,17.90
2023-02-03T18:05:04.164Z,14.60
2023-02-03T18:10:11.566Z,17.60
2023-02-03T18:15:17.524Z,19.90
2023-02-03T18:20:23.328Z,20.30
2023-02-03T18:25:28.935Z,17.70
2023-02-03T18:30:34.862Z,19.30
2023-02-03T18:35:41.129Z,17.20
2023-02-03T18:40:47.100Z,16.80
2023-02-03T18:45:53.141Z,16.90
2023-02-03T18:50:58.878Z,16.50
2023-02-03T18:56:07.863Z,14.60
2023-02-03T19:01:22.475Z,16.80
2023-02-03T19:06:30.597Z,15.90
2023-02-03T19:11:38.210Z,15.90
2023-02-03T19:16:44.153Z,17.20
2023-02-03T19:21:49.942Z,29.00
2023-02-03T19:26:55.834Z,19.60
2023-02-03T19:32:01.755Z,21.40
2023-02-03T19:37:08.646Z,18.80
2023-02-03T19:42:14.212Z,20.30
2023-02-03T19:47:19.890Z,16.60
2023-02-03T19:52:25.832Z,15.10
2023-02-03T19:57:31.412Z,14.10
2023-02-03T20:02:37.319Z,17.20
2023-02-03T20:07:43.256Z,17.00
2023-02-03T20:12:50.124Z,15.90
2023-02-03T20:17:55.933Z,15.10
2023-02-03T20:23:01.867Z,16.40
2023-02-03T20:28:07.677Z,15.60
2023-02-03T20:33:14.623Z,15.50
2023-02-03T20:38:20.658Z,22.80
2023-02-03T20:43:27.683Z,21.60
2023-02-03T20:48:33.566Z,19.40
2023-02-03T20:53:39.808Z,17.70
2023-02-03T20:58:45.764Z,17.00
2023-02-03T21:04:11.830Z,17.00
2023-02-03T21:09:21.132Z,17.60
2023-02-03T21:14:34.893Z,17.90
2023-02-03T21:19:41.473Z,19.10
2023-02-03T21:24:54.102Z,19.30
2023-02-03T21:30:01.833Z,18.10
2023-02-03T21:35:24.349Z,19.90
2023-02-03T21:40:31.644Z,16.70
2023-02-03T21:45:42.059Z,17.10
2023-02-03T21:50:48.360Z,16.30
2023-02-03T21:55:54.250Z,15.80
2023-02-03T22:01:02.182Z,15.00
2023-02-03T22:06:19.223Z,14.80
2023-02-03T22:11:27.385Z,13.90
2023-02-03T22:16:33.084Z,12.10
2023-02-03T22:21:39.211Z,14.00
2023-02-03T22:26:44.878Z,11.80
2023-02-03T22:31:50.990Z,11.70
2023-02-03T22:36:57.116Z,12.30
2023-02-03T22:42:03.019Z,11.60
2023-02-03T22:47:08.656Z,11.00
2023-02-03T22:52:14.780Z,11.70
2023-02-03T22:57:20.403Z,13.00
2023-02-03T23:02:26.447Z,12.90
2023-02-03T23:07:33.212Z,13.40
2023-02-03T23:12:38.843Z,15.80
2023-02-03T23:17:45.690Z,13.70
2023-02-03T23:22:51.820Z,12.00
2023-02-03T23:28:01.670Z,14.50
2023-02-03T23:43:18.837Z,10.40
2023-02-03T23:48:25.390Z,8.70
2023-02-03T23:53:31.691Z,9.10
2023-02-03T23:58:38.141Z,9.50
